Time;durP1;ratioP1;P1;durP2;ratioP2;P2;SDS_P1;SDS_P2;PMS_P1;PMS_P2;Temp;Humidity;BMP_temperature;BMP_pressure;BME280_temperature;BME280_humidity;BME280_pressure;Samples;Min_cycle;Max_cycle;Signal;HPM_P1;HPM_P2
2023/08/05 00:01:23;;;;;;;18.10;0.63;;;14.70;99.90;;;;;;5039078;28;20115;-68
2023/08/05 00:03:49;;;;;;;0.00;0.00;;;14.70;99.90;;;;;;5049772;28;20049;-68
2023/08/05 00:06:15;;;;;;;0.00;0.00;;;14.60;99.90;;;;;;5040155;28;20049;-68
2023/08/05 00:08:40;;;;;;;0.35;0.15;;;14.60;99.90;;;;;;5047584;28;20045;-68
2023/08/05 00:11:06;;;;;;;0.00;0.00;;;14.60;99.90;;;;;;5042977;28;20045;-68
2023/08/05 00:13:34;;;;;;;0.00;0.00;;;14.60;99.90;;;;;;5048677;28;20128;-68
2023/08/05 00:16:06;;;;;;;0.00;0.00;;;14.60;99.90;;;;;;5043983;28;20079;-68
2023/08/05 00:18:32;;;;;;;0.43;0.43;;;14.50;99.90;;;;;;5041980;28;20074;-68
2023/08/05 00:20:57;;;;;;;0.30;0.30;;;14.50;99.90;;;;;;5039232;28;20033;-67
2023/08/05 00:23:23;;;;;;;0.00;0.00;;;14.50;99.90;;;;;;5027326;28;20044;-68
2023/08/05 00:25:48;;;;;;;0.00;0.00;;;14.50;99.90;;;;;;5046971;28;20094;-68
2023/08/05 00:28:14;;;;;;;0.00;0.00;;;14.40;99.90;;;;;;5046472;28;20037;-67
2023/08/05 00:30:39;;;;;;;0.38;0.32;;;14.40;99.90;;;;;;5044394;28;20127;-67
2023/08/05 00:33:05;;;;;;;0.30;0.30;;;14.50;99.90;;;;;;5038416;28;20389;-68
2023/08/05 00:35:31;;;;;;;0.75;0.45;;;14.40;99.90;;;;;;5047447;28;20039;-68
2023/08/05 00:37:56;;;;;;;0.00;0.00;;;14.40;99.90;;;;;;5039450;28;20041;-68
2023/08/05 00:40:22;;;;;;;0.10;0.10;;;14.40;99.90;;;;;;5037785;28;20097;-67
2023/08/05 00:42:47;;;;;;;0.00;0.00;;;14.30;99.90;;;;;;5045010;28;20052;-68
2023/08/05 00:45:13;;;;;;;0.70;0.20;;;14.30;99.90;;;;;;5048347;28;20045;-67
2023/08/05 00:47:40;;;;;;;0.30;0.30;;;14.30;99.90;;;;;;5039242;28;20041;-68
2023/08/05 00:50:06;;;;;;;0.10;0.10;;;14.30;99.90;;;;;;5023434;28;20057;-68
2023/08/05 00:52:32;;;;;;;0.00;0.00;;;14.30;99.90;;;;;;5047692;28;20099;-68
2023/08/05 00:54:58;;;;;;;0.22;0.20;;;14.40;99.90;;;;;;5049132;28;20037;-67
2023/08/05 00:57:25;;;;;;;0.00;0.00;;;14.40;99.90;;;;;;5039128;28;20039;-68
2023/08/05 00:59:50;;;;;;;0.20;0.20;;;14.40;99.90;;;;;;5039085;28;20127;-68
2023/08/05 01:02:16;;;;;;;0.52;0.52;;;14.50;99.90;;;;;;5046096;28;20133;-67
2023/08/05 01:04:41;;;;;;;0.15;0.10;;;14.40;99.90;;;;;;5040584;28;20059;-68
2023/08/05 01:07:08;;;;;;;0.00;0.00;;;14.50;99.90;;;;;;5037028;28;20078;-68
2023/08/05 01:09:34;;;;;;;0.00;0.00;;;14.50;99.90;;;;;;5040026;28;20049;-67
2023/08/05 01:11:59;;;;;;;0.00;0.00;;;14.70;99.90;;;;;;5040420;28;20428;-68
2023/08/05 01:14:25;;;;;;;0.17;0.17;;;14.70;99.90;;;;;;5037057;28;20505;-68
2023/08/05 01:16:51;;;;;;;0.20;0.20;;;14.70;99.90;;;;;;5040116;28;20052;-68
2023/08/05 01:19:25;;;;;;;0.20;0.20;;;14.80;99.90;;;;;;5032645;28;20045;-67
2023/08/05 01:22:24;;;;;;;0.10;0.10;;;14.70;99.90;;;;;;5020811;28;20091;-68
2023/08/05 01:25:04;;;;;;;0.20;0.20;;;14.70;99.90;;;;;;5036489;28;20057;-67
2023/08/05 01:27:32;;;;;;;0.00;0.00;;;14.80;99.90;;;;;;5037811;28;20060;-68
2023/08/05 01:29:57;;;;;;;1.25;0.68;;;14.80;99.90;;;;;;5033561;28;20846;-67
2023/08/05 01:32:24;;;;;;;0.10;0.10;;;14.90;99.90;;;;;;5037162;28;20037;-68
2023/08/05 01:34:50;;;;;;;0.63;0.45;;;14.80;99.90;;;;;;5040888;28;20038;-68
2023/08/05 01:37:15;;;;;;;0.52;0.25;;;14.80;99.90;;;;;;5034654;28;20041;-67
2023/08/05 01:39:41;;;;;;;0.10;0.10;;;14.80;99.90;;;;;;5042202;28;20094;-68
2023/08/05 01:42:07;;;;;;;0.10;0.10;;;14.90;99.90;;;;;;5037567;28;20037;-68
2023/08/05 01:44:33;;;;;;;0.95;0.40;;;14.80;99.90;;;;;;5042253;28;20029;-68
2023/08/05 01:46:58;;;;;;;0.00;0.00;;;14.80;99.90;;;;;;5044341;28;20044;-68
2023/08/05 01:49:24;;;;;;;0.00;0.00;;;15.00;99.90;;;;;;5043342;28;20045;-68
2023/08/05 01:51:50;;;;;;;0.00;0.00;;;15.00;99.90;;;;;;5041489;28;20057;-68
2023/08/05 01:54:16;;;;;;;2.55;0.65;;;15.00;99.90;;;;;;5037123;28;20049;-68
2023/08/05 01:56:42;;;;;;;0.10;0.10;;;15.00;99.90;;;;;;5035639;28;20051;-68
2023/08/05 01:59:07;;;;;;;0.45;0.25;;;15.00;99.90;;;;;;5043672;28;20049;-68
2023/08/05 02:01:40;;;;;;;0.35;0.35;;;15.10;99.90;;;;;;5045314;28;20040;-68
2023/08/05 02:04:06;;;;;;;19.67;1.07;;;15.10;99.90;;;;;;5044706;28;20049;-68
2023/08/05 02:06:31;;;;;;;0.17;0.17;;;15.20;99.90;;;;;;5047411;28;20041;-68
2023/08/05 02:08:57;;;;;;;0.28;0.22;;;15.20;99.90;;;;;;5044876;28;20123;-68
2023/08/05 02:11:22;;;;;;;0.00;0.00;;;15.30;99.90;;;;;;5045733;28;20490;-68
2023/08/05 02:13:48;;;;;;;0.10;0.10;;;15.30;99.90;;;;;;5042081;28;20041;-68
2023/08/05 02:16:14;;;;;;;0.30;0.30;;;15.30;99.90;;;;;;5025298;28;20049;-68
2023/08/05 02:18:39;;;;;;;0.00;0.00;;;15.30;99.90;;;;;;5042924;28;20041;-68
2023/08/05 02:21:05;;;;;;;2.35;0.50;;;15.40;99.90;;;;;;5027242;28;20094;-68
2023/08/05 02:23:30;;;;;;;0.10;0.10;;;15.30;99.90;;;;;;5035365;28;20408;-68
2023/08/05 02:25:56;;;;;;;1.08;0.75;;;15.30;99.90;;;;;;5051568;28;20116;-68
2023/08/05 02:28:21;;;;;;;0.00;0.00;;;15.40;99.90;;;;;;5038763;28;20716;-68
2023/08/05 02:30:47;;;;;;;0.90;0.65;;;15.30;99.90;;;;;;5045589;28;20124;-68
2023/08/05 02:33:13;;;;;;;0.00;0.00;;;15.30;99.90;;;;;;5050115;28;20068;-68
2023/08/05 02:35:38;;;;;;;0.00;0.00;;;15.30;99.90;;;;;;5044799;28;20037;-68
2023/08/05 02:38:04;;;;;;;0.35;0.25;;;15.40;99.90;;;;;;5041202;28;20110;-68
2023/08/05 02:40:33;;;;;;;0.00;0.00;;;15.40;99.90;;;;;;5050641;28;20037;-68
2023/08/05 02:42:59;;;;;;;0.17;0.17;;;15.30;99.90;;;;;;5044361;28;20441;-67
2023/08/05 02:45:24;;;;;;;0.25;0.20;;;15.40;99.90;;;;;;5040546;28;20106;-68
2023/08/05 02:47:50;;;;;;;2.92;0.25;;;15.40;99.90;;;;;;5049472;28;20045;-68
2023/08/05 02:50:15;;;;;;;0.45;0.45;;;15.30;99.90;;;;;;5049594;28;20032;-67
2023/08/05 02:52:41;;;;;;;15.98;0.43;;;15.30;99.90;;;;;;5039423;28;20107;-68
2023/08/05 02:55:07;;;;;;;0.55;0.55;;;15.40;99.90;;;;;;5040645;28;20472;-68
2023/08/05 02:57:32;;;;;;;0.30;0.30;;;15.30;99.90;;;;;;5048215;28;20527;-68
2023/08/05 02:59:58;;;;;;;0.00;0.00;;;15.30;99.90;;;;;;5044321;28;20029;-68
2023/08/05 03:02:24;;;;;;;0.00;0.00;;;15.30;99.90;;;;;;5049965;28;20056;-68
2023/08/05 03:04:49;;;;;;;0.15;0.15;;;15.30;99.90;;;;;;5049954;28;20102;-68
2023/08/05 03:07:15;;;;;;;0.20;0.20;;;15.30;99.90;;;;;;5038180;28;20064;-68
2023/08/05 03:09:40;;;;;;;0.28;0.28;;;15.30;99.90;;;;;;5050309;28;20045;-68
2023/08/05 03:12:07;;;;;;;1.15;1.05;;;15.40;99.90;;;;;;5040745;28;20053;-68
2023/08/05 03:14:34;;;;;;;0.28;0.28;;;15.40;99.90;;;;;;5048881;28;20041;-68
2023/08/05 03:16:59;;;;;;;0.00;0.00;;;15.40;99.90;;;;;;5050528;28;20110;-68
2023/08/05 03:19:25;;;;;;;1.20;0.52;;;15.40;99.90;;;;;;5030144;28;20056;-67
2023/08/05 03:21:50;;;;;;;1.67;0.17;;;15.40;99.90;;;;;;5038637;28;20095;-68
2023/08/05 03:24:16;;;;;;;0.00;0.00;;;15.40;99.90;;;;;;5050796;28;20053;-68
2023/08/05 03:26:42;;;;;;;0.17;0.17;;;15.50;99.90;;;;;;5049185;28;20037;-68
2023/08/05 03:29:07;;;;;;;0.00;0.00;;;15.50;99.90;;;;;;5041691;28;20049;-68
2023/08/05 03:31:33;;;;;;;0.00;0.00;;;15.50;99.90;;;;;;5038369;28;20090;-67
2023/08/05 03:33:58;;;;;;;0.10;0.10;;;15.50;99.90;;;;;;5048570;28;20480;-68
2023/08/05 03:36:24;;;;;;;0.00;0.00;;;15.60;99.90;;;;;;5044751;28;20120;-67
2023/08/05 03:38:51;;;;;;;0.00;0.00;;;15.60;99.90;;;;;;5039787;28;20041;-68
2023/08/05 03:41:17;;;;;;;0.30;0.30;;;15.60;99.90;;;;;;5048964;28;20040;-68
2023/08/05 03:43:42;;;;;;;0.10;0.10;;;15.60;99.90;;;;;;5028668;28;20221;-68
2023/08/05 03:46:08;;;;;;;0.00;0.00;;;15.60;99.90;;;;;;5047463;28;20136;-67
2023/08/05 03:48:34;;;;;;;0.10;0.10;;;15.60;99.90;;;;;;5027392;28;20049;-68
2023/08/05 03:51:00;;;;;;;0.00;0.00;;;15.60;99.90;;;;;;5049110;28;20048;-68
2023/08/05 03:53:26;;;;;;;0.10;0.10;;;15.50;99.90;;;;;;5031007;28;20427;-68
2023/08/05 03:55:51;;;;;;;0.28;0.28;;;15.50;99.90;;;;;;5039731;28;20124;-68
2023/08/05 03:58:19;;;;;;;0.50;0.50;;;15.50;99.90;;;;;;5035603;28;20046;-68
2023/08/05 04:00:45;;;;;;;0.10;0.10;;;15.50;99.90;;;;;;5044383;28;20056;-68
2023/08/05 04:03:11;;;;;;;0.38;0.38;;;15.50;99.90;;;;;;5043830;28;20048;-68
2023/08/05 04:05:37;;;;;;;0.10;0.10;;;15.50;99.90;;;;;;5039173;28;20041;-68
2023/08/05 04:08:02;;;;;;;0.08;0.08;;;15.50;99.90;;;;;;5039886;28;20045;-67
2023/08/05 04:10:29;;;;;;;2.90;1.15;;;15.60;99.90;;;;;;5046129;28;20053;-68
2023/08/05 04:12:56;;;;;;;0.00;0.00;;;15.60;99.90;;;;;;5042124;28;20040;-68
2023/08/05 04:15:23;;;;;;;0.13;0.13;;;15.60;99.90;;;;;;5042497;28;20083;-68
2023/08/05 04:17:50;;;;;;;0.00;0.00;;;15.60;99.90;;;;;;5035731;28;20044;-68
2023/08/05 04:20:17;;;;;;;0.10;0.10;;;15.60;99.90;;;;;;5039117;28;20047;-67
2023/08/05 04:22:48;;;;;;;0.65;0.65;;;15.60;99.90;;;;;;5040970;28;20045;-68
2023/08/05 04:25:13;;;;;;;0.20;0.20;;;15.60;99.90;;;;;;5047483;28;20382;-68
2023/08/05 04:27:39;;;;;;;0.03;0.03;;;15.60;99.90;;;;;;5046809;28;20055;-68
2023/08/05 04:30:07;;;;;;;0.17;0.13;;;15.60;99.90;;;;;;5041266;28;20381;-68
2023/08/05 04:32:32;;;;;;;0.00;0.00;;;15.60;99.90;;;;;;5037618;28;20038;-68
2023/08/05 04:34:58;;;;;;;0.10;0.10;;;15.60;99.90;;;;;;5047897;28;20543;-68
2023/08/05 04:37:23;;;;;;;0.00;0.00;;;15.70;99.90;;;;;;5041440;28;20423;-68
2023/08/05 04:39:49;;;;;;;0.00;0.00;;;15.70;99.90;;;;;;5047963;28;20037;-68
2023/08/05 04:42:16;;;;;;;0.00;0.00;;;15.70;99.90;;;;;;5035590;28;20045;-68
2023/08/05 04:44:42;;;;;;;0.10;0.10;;;15.70;99.90;;;;;;5048562;28;20454;-68
2023/08/05 04:47:09;;;;;;;0.40;0.40;;;15.70;99.90;;;;;;5043501;28;20087;-68
2023/08/05 04:49:35;;;;;;;0.00;0.00;;;15.70;99.90;;;;;;5039683;28;20041;-68
2023/08/05 04:52:05;;;;;;;0.00;0.00;;;15.70;99.90;;;;;;5042388;28;20081;-68
2023/08/05 04:54:37;;;;;;;0.40;0.40;;;15.70;99.90;;;;;;5042028;28;20765;-67
2023/08/05 04:57:03;;;;;;;0.00;0.00;;;15.70;99.90;;;;;;5041793;28;20408;-68
2023/08/05 04:59:29;;;;;;;0.00;0.00;;;15.80;99.90;;;;;;5043846;28;20049;-68
2023/08/05 05:01:55;;;;;;;0.10;0.10;;;15.70;99.90;;;;;;5041734;28;20052;-67
2023/08/05 05:04:20;;;;;;;0.00;0.00;;;15.70;99.90;;;;;;5040392;28;20041;-68
2023/08/05 05:06:46;;;;;;;0.00;0.00;;;15.70;99.90;;;;;;5040110;28;20076;-68
2023/08/05 05:09:11;;;;;;;0.00;0.00;;;15.80;99.90;;;;;;5041432;28;20132;-67
2023/08/05 05:11:37;;;;;;;0.03;0.03;;;15.80;99.90;;;;;;5037956;28;20041;-68
2023/08/05 05:14:03;;;;;;;0.15;0.15;;;15.80;99.90;;;;;;5044387;28;20080;-68
2023/08/05 05:16:29;;;;;;;0.00;0.00;;;15.80;99.90;;;;;;5044878;28;20044;-68
2023/08/05 05:18:55;;;;;;;0.30;0.30;;;15.80;99.90;;;;;;5042313;28;20049;-68
2023/08/05 05:21:20;;;;;;;0.00;0.00;;;15.80;99.90;;;;;;5039111;28;20048;-68
2023/08/05 05:23:46;;;;;;;0.10;0.10;;;15.80;99.90;;;;;;5039248;28;20073;-68
2023/08/05 05:26:11;;;;;;;0.10;0.10;;;15.80;99.90;;;;;;5041356;28;20044;-68
2023/08/05 05:28:37;;;;;;;0.00;0.00;;;15.80;99.90;;;;;;5039474;28;20038;-67
2023/08/05 05:31:03;;;;;;;0.00;0.00;;;15.80;99.90;;;;;;5020662;28;20040;-67
2023/08/05 05:33:29;;;;;;;2.75;0.85;;;15.90;99.90;;;;;;5023033;28;20087;-68
2023/08/05 05:35:54;;;;;;;0.20;0.20;;;15.90;99.90;;;;;;5040315;28;20041;-68
2023/08/05 05:38:20;;;;;;;0.30;0.30;;;16.00;99.90;;;;;;5041362;28;20045;-68
2023/08/05 05:40:45;;;;;;;0.15;0.15;;;15.90;99.90;;;;;;5044639;28;20056;-68
2023/08/05 05:43:11;;;;;;;0.00;0.00;;;15.90;99.90;;;;;;5044088;28;20049;-68
2023/08/05 05:45:37;;;;;;;1.08;0.55;;;15.80;99.90;;;;;;5050781;28;20033;-68
2023/08/05 05:48:03;;;;;;;0.28;0.28;;;15.90;99.90;;;;;;5046745;28;20048;-68
2023/08/05 05:50:29;;;;;;;0.00;0.00;;;15.90;99.90;;;;;;5050294;28;20060;-68
2023/08/05 05:52:55;;;;;;;0.73;0.45;;;15.90;99.90;;;;;;5049975;28;20176;-67
2023/08/05 05:55:20;;;;;;;0.08;0.08;;;15.90;99.90;;;;;;5042118;28;20124;-68
2023/08/05 05:57:46;;;;;;;0.00;0.00;;;15.90;99.90;;;;;;5030216;28;20041;-68
2023/08/05 06:00:14;;;;;;;0.00;0.00;;;16.00;99.90;;;;;;5049078;28;20502;-68
2023/08/05 06:02:40;;;;;;;0.00;0.00;;;16.00;99.90;;;;;;5038025;28;20835;-67
2023/08/05 06:05:07;;;;;;;0.00;0.00;;;16.10;99.90;;;;;;5049088;28;20040;-68
2023/08/05 06:07:32;;;;;;;0.00;0.00;;;16.10;99.90;;;;;;5029311;28;20044;-68
2023/08/05 06:09:58;;;;;;;0.25;0.25;;;16.10;99.90;;;;;;5041290;28;20041;-67
2023/08/05 06:12:27;;;;;;;0.00;0.00;;;16.20;99.90;;;;;;5029418;28;20497;-67
2023/08/05 06:14:53;;;;;;;0.08;0.08;;;16.30;99.90;;;;;;5041596;28;20118;-67
2023/08/05 06:17:19;;;;;;;0.00;0.00;;;16.30;99.90;;;;;;5041780;28;20065;-67
2023/08/05 06:19:44;;;;;;;0.00;0.00;;;16.40;99.90;;;;;;5025052;28;20208;-70
2023/08/05 06:22:10;;;;;;;0.10;0.10;;;16.40;99.90;;;;;;5048988;28;20033;-66
2023/08/05 06:24:36;;;;;;;0.00;0.00;;;16.40;99.90;;;;;;5034863;28;20431;-68
2023/08/05 06:27:01;;;;;;;0.00;0.00;;;16.50;99.90;;;;;;5045264;28;20087;-68
2023/08/05 06:29:27;;;;;;;0.00;0.00;;;16.50;99.90;;;;;;5028750;28;20369;-68
2023/08/05 06:31:52;;;;;;;1.65;0.43;;;16.50;99.90;;;;;;5045950;28;20049;-68
2023/08/05 06:34:20;;;;;;;0.00;0.00;;;16.60;99.90;;;;;;5040643;28;20041;-68
2023/08/05 06:36:45;;;;;;;0.20;0.20;;;16.60;99.90;;;;;;5021474;28;20068;-68
2023/08/05 06:39:11;;;;;;;4.38;1.42;;;16.60;99.90;;;;;;5046622;28;20477;-69
2023/08/05 06:41:37;;;;;;;0.75;0.15;;;16.60;99.90;;;;;;5044894;28;20033;-68
2023/08/05 06:44:02;;;;;;;0.00;0.00;;;16.70;99.90;;;;;;5045082;28;20049;-68
2023/08/05 06:46:28;;;;;;;0.00;0.00;;;16.70;99.90;;;;;;5038210;28;20042;-69
2023/08/05 06:48:53;;;;;;;1.00;0.22;;;16.70;99.90;;;;;;5027316;28;20048;-69
2023/08/05 06:51:19;;;;;;;0.00;0.00;;;16.80;99.90;;;;;;5042221;28;20443;-68
2023/08/05 06:53:45;;;;;;;0.00;0.00;;;16.80;99.90;;;;;;5048046;28;20652;-69
2023/08/05 06:56:11;;;;;;;0.70;0.43;;;16.70;99.90;;;;;;5043326;28;20088;-68
2023/08/05 06:58:36;;;;;;;0.00;0.00;;;16.80;99.90;;;;;;5042274;28;20060;-68
2023/08/05 07:01:02;;;;;;;0.00;0.00;;;16.80;99.90;;;;;;5047449;28;20404;-68
2023/08/05 07:03:28;;;;;;;0.00;0.00;;;16.80;99.90;;;;;;5040148;28;20042;-69
2023/08/05 07:05:55;;;;;;;0.20;0.20;;;16.80;99.90;;;;;;5033925;28;20484;-68
2023/08/05 07:08:22;;;;;;;0.00;0.00;;;16.80;99.90;;;;;;5036488;28;20037;-69
2023/08/05 07:10:58;;;;;;;0.00;0.00;;;16.90;99.90;;;;;;5038825;28;20443;-69
2023/08/05 07:13:27;;;;;;;0.00;0.00;;;16.90;99.90;;;;;;5023076;28;20906;-68
2023/08/05 07:16:03;;;;;;;0.22;0.22;;;17.00;99.90;;;;;;5023723;28;20047;-68
2023/08/05 07:18:29;;;;;;;2.83;1.20;;;17.00;99.90;;;;;;5036994;28;20133;-69
2023/08/05 07:20:55;;;;;;;0.55;0.55;;;17.00;99.90;;;;;;5019661;28;20424;-69
2023/08/05 07:23:21;;;;;;;0.20;0.20;;;17.00;99.90;;;;;;5037455;28;20049;-69
2023/08/05 07:25:46;;;;;;;0.28;0.28;;;17.10;99.90;;;;;;5017435;28;20834;-69
2023/08/05 07:28:12;;;;;;;0.15;0.13;;;17.10;99.90;;;;;;5037112;28;20396;-69
2023/08/05 07:30:41;;;;;;;0.00;0.00;;;17.10;99.90;;;;;;5042599;28;20095;-69
2023/08/05 07:33:11;;;;;;;0.52;0.52;;;17.10;99.90;;;;;;5021162;28;20052;-69
2023/08/05 07:35:37;;;;;;;0.38;0.38;;;17.10;99.90;;;;;;5042963;28;20061;-69
2023/08/05 07:38:09;;;;;;;0.20;0.20;;;17.10;99.90;;;;;;5022728;28;20151;-69
2023/08/05 07:40:36;;;;;;;5.10;1.02;;;17.20;99.90;;;;;;5033676;28;20045;-71
2023/08/05 07:43:03;;;;;;;0.00;0.00;;;17.10;99.90;;;;;;5040653;28;20107;-69
2023/08/05 07:45:29;;;;;;;0.00;0.00;;;17.20;99.90;;;;;;5036156;28;20124;-68
2023/08/05 07:47:56;;;;;;;0.00;0.00;;;17.20;99.90;;;;;;5044948;28;20056;-68
2023/08/05 07:50:22;;;;;;;0.25;0.25;;;17.20;99.90;;;;;;5047745;28;20094;-68
2023/08/05 07:52:53;;;;;;;0.10;0.10;;;17.30;99.90;;;;;;5034065;28;20562;-68
2023/08/05 07:55:19;;;;;;;0.30;0.20;;;17.30;99.90;;;;;;5042151;28;20044;-68
2023/08/05 07:57:46;;;;;;;0.10;0.10;;;17.40;99.90;;;;;;5044773;28;20041;-69
2023/08/05 08:00:13;;;;;;;0.00;0.00;;;17.40;99.90;;;;;;5042824;28;20052;-68
2023/08/05 08:02:43;;;;;;;0.03;0.03;;;17.40;99.90;;;;;;5040437;28;20041;-69
2023/08/05 08:05:09;;;;;;;4.43;0.90;;;17.40;99.90;;;;;;5050507;28;20515;-68
2023/08/05 08:07:34;;;;;;;0.70;0.63;;;17.50;99.90;;;;;;5043161;28;20044;-68
2023/08/05 08:10:00;;;;;;;0.00;0.00;;;17.60;99.90;;;;;;5029774;28;20045;-68
2023/08/05 08:12:26;;;;;;;0.00;0.00;;;17.60;99.90;;;;;;5031542;28;20041;-69
2023/08/05 08:14:51;;;;;;;0.10;0.10;;;17.70;99.90;;;;;;5046455;28;20036;-68
2023/08/05 08:17:17;;;;;;;0.00;0.00;;;17.70;99.90;;;;;;5026448;28;20044;-69
2023/08/05 08:19:45;;;;;;;0.00;0.00;;;17.70;99.90;;;;;;5037086;28;20059;-68
2023/08/05 08:22:11;;;;;;;0.03;0.03;;;17.80;99.90;;;;;;5042522;28;20507;-68
2023/08/05 08:24:36;;;;;;;10.63;0.55;;;17.90;99.90;;;;;;5024127;28;20037;-68
2023/08/05 08:27:02;;;;;;;0.00;0.00;;;17.80;99.90;;;;;;5031527;28;20068;-68
2023/08/05 08:29:28;;;;;;;0.10;0.10;;;18.00;99.90;;;;;;5036288;28;20037;-68
2023/08/05 08:31:53;;;;;;;0.32;0.22;;;18.00;99.90;;;;;;5048297;28;20037;-68
2023/08/05 08:34:19;;;;;;;0.13;0.13;;;18.00;99.90;;;;;;5041864;28;20081;-68
2023/08/05 08:36:44;;;;;;;0.10;0.10;;;18.10;99.90;;;;;;5041854;28;20098;-68
2023/08/05 08:39:10;;;;;;;0.10;0.10;;;18.10;99.90;;;;;;5037123;28;20468;-68
2023/08/05 08:41:41;;;;;;;0.55;0.38;;;18.10;99.90;;;;;;5040471;28;20037;-68
2023/08/05 08:44:08;;;;;;;0.32;0.32;;;18.20;99.90;;;;;;5044491;28;20041;-68
2023/08/05 08:46:35;;;;;;;0.00;0.00;;;18.30;99.90;;;;;;5043905;28;20042;-68
2023/08/05 08:49:00;;;;;;;0.10;0.10;;;18.40;99.90;;;;;;5039948;28;20041;-68
2023/08/05 08:51:26;;;;;;;0.00;0.00;;;18.50;99.90;;;;;;5038827;28;20071;-68
2023/08/05 08:53:52;;;;;;;0.20;0.20;;;18.50;99.90;;;;;;5048575;28;20091;-68
2023/08/05 08:56:18;;;;;;;0.10;0.10;;;18.40;99.90;;;;;;5049064;28;20041;-68
2023/08/05 08:58:43;;;;;;;0.10;0.10;;;18.40;99.90;;;;;;5041306;28;20041;-68
2023/08/05 09:01:10;;;;;;;0.38;0.38;;;18.40;99.90;;;;;;5046394;28;20033;-68
2023/08/05 09:03:37;;;;;;;0.28;0.20;;;18.50;99.90;;;;;;5045635;28;20045;-68
2023/08/05 09:06:03;;;;;;;0.32;0.32;;;18.50;99.90;;;;;;5035181;28;20380;-68
2023/08/05 09:08:29;;;;;;;0.20;0.10;;;18.60;99.90;;;;;;5043247;28;20045;-69
2023/08/05 09:10:54;;;;;;;2.83;0.60;;;18.70;99.90;;;;;;5036417;28;20531;-69
2023/08/05 09:13:20;;;;;;;0.05;0.05;;;18.80;99.90;;;;;;5045114;28;20084;-68
2023/08/05 09:15:47;;;;;;;0.10;0.10;;;18.80;99.90;;;;;;5039920;28;20068;-68
2023/08/05 09:18:12;;;;;;;0.10;0.10;;;18.90;99.90;;;;;;5034581;28;20045;-68
2023/08/05 09:20:38;;;;;;;0.00;0.00;;;18.90;99.90;;;;;;5041562;28;20037;-68
2023/08/05 09:23:05;;;;;;;1.08;0.75;;;19.00;99.90;;;;;;5040795;28;20371;-68
2023/08/05 09:25:32;;;;;;;0.10;0.10;;;18.90;99.90;;;;;;5045915;28;20040;-67
2023/08/05 09:28:00;;;;;;;0.00;0.00;;;19.00;99.90;;;;;;5038850;28;20052;-69
2023/08/05 09:30:27;;;;;;;0.00;0.00;;;19.10;99.90;;;;;;5029973;28;20681;-69
2023/08/05 09:32:56;;;;;;;0.95;0.22;;;19.30;99.90;;;;;;5040065;28;20053;-68
2023/08/05 09:35:23;;;;;;;0.00;0.00;;;19.20;99.90;;;;;;5049592;28;20128;-68
2023/08/05 09:37:51;;;;;;;0.00;0.00;;;19.20;99.90;;;;;;5036883;28;20075;-67
2023/08/05 09:40:19;;;;;;;0.00;0.00;;;19.00;99.90;;;;;;5043666;28;20098;-68
2023/08/05 09:42:50;;;;;;;0.00;0.00;;;19.00;99.90;;;;;;5048466;28;20044;-68
2023/08/05 09:45:17;;;;;;;0.00;0.00;;;18.90;99.90;;;;;;5031473;28;20087;-68
2023/08/05 09:47:46;;;;;;;0.40;0.40;;;18.90;99.90;;;;;;5029307;28;20037;-68
2023/08/05 09:50:15;;;;;;;0.10;0.10;;;18.80;99.90;;;;;;5041494;28;20033;-68
2023/08/05 09:52:41;;;;;;;0.00;0.00;;;18.70;99.90;;;;;;5029944;28;20056;-68
2023/08/05 09:55:14;;;;;;;0.00;0.00;;;18.60;99.90;;;;;;5028759;28;20040;-67
2023/08/05 09:57:41;;;;;;;0.00;0.00;;;18.60;99.90;;;;;;5030914;28;20048;-68
2023/08/05 10:00:11;;;;;;;0.30;0.30;;;18.60;99.90;;;;;;5034964;28;20049;-68
2023/08/05 10:02:41;;;;;;;0.93;0.65;;;18.60;99.90;;;;;;5039332;28;20381;-67
2023/08/05 10:05:09;;;;;;;0.10;0.10;;;18.80;99.90;;;;;;5036171;28;20101;-68
2023/08/05 10:07:36;;;;;;;0.00;0.00;;;19.00;99.90;;;;;;5042010;28;20120;-68
2023/08/05 10:10:07;;;;;;;0.10;0.10;;;19.10;99.90;;;;;;5033451;28;20045;-68
2023/08/05 10:12:38;;;;;;;0.00;0.00;;;19.20;99.90;;;;;;5041557;28;20042;-68
2023/08/05 10:15:05;;;;;;;0.00;0.00;;;19.20;99.90;;;;;;5040331;28;20037;-68
2023/08/05 10:17:31;;;;;;;0.00;0.00;;;19.30;99.90;;;;;;5037466;28;20439;-68
2023/08/05 10:20:00;;;;;;;0.00;0.00;;;19.10;99.90;;;;;;5036170;28;20032;-68
2023/08/05 10:22:27;;;;;;;0.10;0.10;;;19.00;99.90;;;;;;5033402;28;20080;-68
2023/08/05 10:25:00;;;;;;;0.00;0.00;;;19.00;99.90;;;;;;5041008;28;20042;-68
2023/08/05 10:27:40;;;;;;;0.10;0.10;;;18.90;99.90;;;;;;5035458;28;20408;-69
2023/08/05 10:30:16;;;;;;;0.00;0.00;;;18.80;99.90;;;;;;5027189;28;20041;-68
2023/08/05 10:33:09;;;;;;;0.10;0.10;;;18.80;99.90;;;;;;5027239;28;20144;-68
2023/08/05 10:35:39;;;;;;;0.00;0.00;;;18.90;99.90;;;;;;5037977;28;20522;-68
2023/08/05 10:38:34;;;;;;;0.00;0.00;;;19.00;99.90;;;;;;5039336;28;20051;-68
2023/08/05 10:41:03;;;;;;;0.15;0.15;;;19.00;99.90;;;;;;5022335;28;20041;-68
2023/08/05 10:43:34;;;;;;;0.30;0.30;;;19.10;99.90;;;;;;5051961;28;20037;-68
2023/08/05 10:46:06;;;;;;;0.00;0.00;;;19.20;99.90;;;;;;5032962;28;20405;-69
2023/08/05 10:48:50;;;;;;;0.43;0.25;;;19.20;99.90;;;;;;5033762;28;20049;-69
2023/08/05 10:51:20;;;;;;;1.40;1.30;;;19.30;99.90;;;;;;5043480;28;20073;-69
2023/08/05 10:53:51;;;;;;;0.70;0.20;;;19.30;99.90;;;;;;5039061;28;20454;-68
2023/08/05 10:56:18;;;;;;;0.65;0.65;;;19.40;99.90;;;;;;5040408;28;20107;-68
2023/08/05 10:58:51;;;;;;;0.00;0.00;;;19.40;99.90;;;;;;5048232;28;20037;-69
2023/08/05 11:01:17;;;;;;;0.00;0.00;;;19.40;99.90;;;;;;5039439;28;20049;-68
2023/08/05 11:03:52;;;;;;;0.00;0.00;;;19.30;99.90;;;;;;5048496;28;20124;-68
2023/08/05 11:06:25;;;;;;;0.28;0.28;;;19.20;99.90;;;;;;5035718;28;20806;-68
2023/08/05 11:08:51;;;;;;;0.00;0.00;;;19.10;99.90;;;;;;5033343;28;20055;-68
2023/08/05 11:11:17;;;;;;;0.90;0.85;;;19.20;99.90;;;;;;5050443;28;20116;-68
2023/08/05 11:13:47;;;;;;;0.10;0.10;;;19.30;99.90;;;;;;5049481;28;20037;-68
2023/08/05 11:16:19;;;;;;;0.00;0.00;;;19.30;99.90;;;;;;5036460;28;20086;-68
2023/08/05 11:18:54;;;;;;;0.43;0.20;;;19.30;99.90;;;;;;5041567;28;20391;-69
2023/08/05 11:21:20;;;;;;;0.10;0.10;;;19.30;99.90;;;;;;5043554;28;20393;-68
2023/08/05 11:23:46;;;;;;;2.38;0.25;;;19.40;99.90;;;;;;5040928;28;20040;-69
2023/08/05 11:26:12;;;;;;;0.60;0.45;;;19.30;99.90;;;;;;5040427;28;20107;-68
2023/08/05 11:28:46;;;;;;;0.00;0.00;;;19.40;99.90;;;;;;5047740;28;20037;-68
2023/08/05 11:31:22;;;;;;;0.00;0.00;;;19.40;99.90;;;;;;5042429;28;20050;-68
2023/08/05 11:33:50;;;;;;;0.03;0.03;;;19.40;99.90;;;;;;5041717;28;20044;-68
2023/08/05 11:36:16;;;;;;;0.00;0.00;;;19.30;99.90;;;;;;5038788;28;20096;-69
2023/08/05 11:38:42;;;;;;;0.10;0.10;;;19.40;99.90;;;;;;5027505;28;20435;-69
2023/08/05 11:41:08;;;;;;;0.10;0.10;;;19.30;99.90;;;;;;5027038;28;20044;-68
2023/08/05 11:43:35;;;;;;;0.00;0.00;;;19.40;99.90;;;;;;5037065;28;20034;-68
2023/08/05 11:46:01;;;;;;;0.25;0.25;;;19.40;99.90;;;;;;5038258;28;20037;-68
2023/08/05 11:48:28;;;;;;;0.13;0.10;;;19.40;99.90;;;;;;5042033;28;20041;-68
2023/08/05 11:51:00;;;;;;;0.10;0.10;;;19.50;99.90;;;;;;5019694;28;20053;-68
2023/08/05 11:53:29;;;;;;;0.20;0.20;;;19.50;99.90;;;;;;5033447;28;20076;-69
2023/08/05 11:55:55;;;;;;;0.55;0.32;;;19.60;99.90;;;;;;5024396;28;20045;-68
2023/08/05 11:58:23;;;;;;;0.00;0.00;;;19.50;99.90;;;;;;5027925;28;20053;-68
2023/08/05 12:00:57;;;;;;;0.00;0.00;;;19.50;99.90;;;;;;5037825;28;20434;-68
2023/08/05 12:03:29;;;;;;;0.00;0.00;;;19.50;99.90;;;;;;5035372;28;20048;-68
2023/08/05 12:06:00;;;;;;;0.25;0.25;;;19.50;99.90;;;;;;5018574;28;20052;-68
2023/08/05 12:08:39;;;;;;;0.10;0.10;;;19.40;99.90;;;;;;5038967;28;20052;-68
2023/08/05 12:11:05;;;;;;;0.00;0.00;;;19.40;99.90;;;;;;5034337;28;20043;-68
2023/08/05 12:13:35;;;;;;;0.00;0.00;;;19.40;99.90;;;;;;5035932;28;20045;-68
2023/08/05 12:16:13;;;;;;;0.00;0.00;;;19.30;99.90;;;;;;5035432;28;20029;-69
2023/08/05 12:18:45;;;;;;;0.00;0.00;;;19.30;99.90;;;;;;5018738;28;20041;-69
2023/08/05 12:21:12;;;;;;;0.55;0.32;;;19.20;99.90;;;;;;5033537;28;20087;-68
2023/08/05 12:23:41;;;;;;;0.00;0.00;;;19.30;99.90;;;;;;5041975;28;20507;-69
2023/08/05 12:26:07;;;;;;;2.33;0.30;;;19.30;99.90;;;;;;5040652;28;20049;-68
2023/08/05 12:28:33;;;;;;;0.00;0.00;;;19.30;99.90;;;;;;5037802;28;20041;-68
2023/08/05 12:30:59;;;;;;;0.00;0.00;;;19.30;99.90;;;;;;5041585;28;20103;-68
2023/08/05 12:33:24;;;;;;;0.05;0.05;;;19.30;99.90;;;;;;5045715;28;20132;-68
2023/08/05 12:35:50;;;;;;;0.17;0.17;;;19.40;99.90;;;;;;5036798;28;20546;-68
2023/08/05 12:38:15;;;;;;;0.22;0.22;;;19.40;99.90;;;;;;5038971;28;20113;-68
2023/08/05 12:40:41;;;;;;;0.03;0.03;;;19.40;99.90;;;;;;5040946;28;20046;-68
2023/08/05 12:43:07;;;;;;;0.00;0.00;;;19.40;99.90;;;;;;5038511;28;20041;-69
2023/08/05 12:45:32;;;;;;;0.32;0.28;;;19.40;99.90;;;;;;5039698;28;20038;-68